This is the latest recevied weather packets stored in our database for station/object N9UMJ-12. If no packets are shown the sender has not sent any weather packets the latest 10 day(s).
| Time | Temp. | Humidity | Pressure | Rain* | Wind** | Luminosity | Snow |
|---|---|---|---|---|---|---|---|
| 1777709721 | 3.89° C | 96% | 1018.2 hPa | 0 mm | - | 0 W/m² | - |
| 1777706159 | 4.44° C | 96% | 1018 hPa | 0 mm | - | 0 W/m² | - |
| 1777694718 | 4.44° C | 90% | 1018.7 hPa | 0 mm | - | 0 W/m² | - |
| 1777689340 | 6.67° C | 84% | 1018.7 hPa | 0 mm | - | 0 W/m² | - |
| 1777688720 | 6.67° C | 81% | 1018.6 hPa | 0 mm | - | 0 W/m² | - |
| 1777687517 | 7.22° C | 81% | 1018.1 hPa | 0 mm | - | 0 W/m² | - |
| 1777686318 | 7.78° C | 77% | 1017.9 hPa | 0 mm | - | 0 W/m² | - |
| 1777674320 | 12.78° C | 55% | 1016.2 hPa | 0 mm | - | 314 W/m² | - |
| 1777673738 | 12.78° C | 55% | 1016.2 hPa | 0 mm | - | 132 W/m² | - |
| 1777672519 | 13.33° C | 55% | 1016.2 hPa | 0 mm | - | 138 W/m² | - |
| 1777668337 | 12.78° C | 58% | 1016.5 hPa | 0 mm | - | 319 W/m² | - |
| 1777660519 | 12.78° C | 55% | 1016.4 hPa | 0 mm | - | 270 W/m² | - |
| 1777658717 | 12.22° C | 59% | 1016.5 hPa | 0 mm | - | 409 W/m² | - |
| 1777652118 | 11.11° C | 69% | 1016.3 hPa | 0 mm | - | 902 W/m² | - |
| 1777648519 | 11.67° C | 69% | 1015.8 hPa | 0 mm | - | 73 W/m² | - |
| 1777645537 | 11.11° C | 73% | 1015.1 hPa | 0 mm | - | 144 W/m² | - |
| 1777643721 | 11.11° C | 73% | 1014.9 hPa | 0 mm | - | 434 W/m² | - |
| 1777638328 | 9.44° C | 89% | 1014.4 hPa | 0 mm | - | 55 W/m² | - |
| 1777635929 | 10.56° C | 80% | 1013.9 hPa | 0.25 mm | - | 7 W/m² | - |
| 1777634129 | 10° C | 80% | 1013.5 hPa | 0.25 mm | - | 9 W/m² | - |
| 1777633529 | 10° C | 79% | 1013.5 hPa | 0.25 mm | - | 3 W/m² | - |
| 1777631729 | 10° C | 80% | 1013.5 hPa | 0 mm | - | 0 W/m² | - |
| 1777630530 | 9.44° C | 83% | 1013.8 hPa | 0 mm | - | 0 W/m² | - |
| 1777622721 | 9.44° C | 83% | 1013.8 hPa | 0 mm | - | 0 W/m² | - |
| 1777618519 | 8.89° C | 84% | 1014.7 hPa | 0 mm | - | 0 W/m² | - |
* Rain latest hour (hover to see other rain measurements)
** Current wind speed in m/s (hover to see current wind gust speed)